createdAt,value
2019-03-24T00:00:41.223Z,85.90
2019-03-24T00:05:46.257Z,85.80
2019-03-24T00:10:51.320Z,85.10
2019-03-24T00:15:56.068Z,84.90
2019-03-24T00:21:00.779Z,84.80
2019-03-24T00:26:05.545Z,85.00
2019-03-24T00:31:10.596Z,85.10
2019-03-24T00:36:15.311Z,84.70
2019-03-24T00:41:20.385Z,85.40
2019-03-24T00:46:25.435Z,85.60
2019-03-24T00:51:30.253Z,86.00
2019-03-24T00:56:35.227Z,85.60
2019-03-24T01:01:40.250Z,85.70
2019-03-24T01:06:44.890Z,86.10
2019-03-24T01:11:49.740Z,85.80
2019-03-24T01:16:55.118Z,85.40
2019-03-24T01:22:00.170Z,85.50
2019-03-24T01:27:05.086Z,85.60
2019-03-24T01:32:09.958Z,85.90
2019-03-24T01:37:16.310Z,86.00
2019-03-24T01:42:21.282Z,85.10
2019-03-24T01:47:27.250Z,85.00
2019-03-24T01:52:31.992Z,85.20
2019-03-24T01:57:37.092Z,85.50
2019-03-24T02:02:42.789Z,85.20
2019-03-24T02:07:47.634Z,84.70
2019-03-24T02:12:52.469Z,84.50
2019-03-24T02:17:57.240Z,83.80
2019-03-24T02:23:01.980Z,84.10
2019-03-24T02:28:06.699Z,83.70
2019-03-24T02:33:11.770Z,83.50
2019-03-24T02:38:16.822Z,83.30
2019-03-24T02:43:21.562Z,83.70
2019-03-24T02:48:26.612Z,83.90
2019-03-24T02:53:31.429Z,83.60
2019-03-24T02:58:36.412Z,83.80
2019-03-24T03:03:42.655Z,83.60
2019-03-24T03:08:47.422Z,83.60
2019-03-24T03:13:52.138Z,83.40
2019-03-24T03:18:56.881Z,84.00
2019-03-24T03:24:01.955Z,84.70
2019-03-24T03:29:06.696Z,84.70
2019-03-24T03:34:11.438Z,83.40
2019-03-24T03:39:16.496Z,83.50
2019-03-24T03:44:21.229Z,83.60
2019-03-24T03:49:26.050Z,83.40
2019-03-24T03:54:31.021Z,83.90
2019-03-24T03:59:35.764Z,83.40
2019-03-24T04:04:40.796Z,83.90
2019-03-24T04:09:45.859Z,84.30
2019-03-24T04:14:50.907Z,85.00
2019-03-24T04:19:55.654Z,84.70
2019-03-24T04:25:00.440Z,85.20
2019-03-24T04:30:07.079Z,85.20
2019-03-24T04:35:12.318Z,85.70
2019-03-24T04:40:17.386Z,85.70
2019-03-24T04:45:22.067Z,85.90
2019-03-24T04:50:26.870Z,86.10
2019-03-24T04:55:31.607Z,85.60
2019-03-24T05:00:38.500Z,85.00
2019-03-24T05:05:43.523Z,84.90
2019-03-24T05:10:48.370Z,84.70
2019-03-24T05:15:53.032Z,84.90
2019-03-24T05:20:57.750Z,84.80
2019-03-24T05:26:02.823Z,84.70
2019-03-24T05:31:07.878Z,84.60
2019-03-24T05:36:12.492Z,84.00
2019-03-24T05:41:17.355Z,84.10
2019-03-24T05:46:22.406Z,83.60
2019-03-24T05:51:27.148Z,83.50
2019-03-24T05:56:31.889Z,82.40
2019-03-24T06:01:36.542Z,80.90
2019-03-24T06:06:41.247Z,80.70
2019-03-24T06:11:46.114Z,79.80
2019-03-24T06:16:50.855Z,78.30
2019-03-24T06:21:55.485Z,77.40
2019-03-24T06:27:00.543Z,75.80
2019-03-24T06:32:05.362Z,74.30
2019-03-24T06:37:10.131Z,75.20
2019-03-24T06:42:14.875Z,75.00
2019-03-24T06:47:19.716Z,74.50
2019-03-24T06:52:24.875Z,74.40
2019-03-24T06:57:29.712Z,77.10
2019-03-24T07:02:34.457Z,74.80
2019-03-24T07:07:39.381Z,74.90
2019-03-24T07:12:44.245Z,75.70
2019-03-24T07:17:50.216Z,74.50
2019-03-24T07:22:54.943Z,74.50
2019-03-24T07:27:59.584Z,74.10
2019-03-24T07:33:04.443Z,74.90
2019-03-24T07:38:09.267Z,73.40
2019-03-24T07:43:14.236Z,72.50
2019-03-24T07:48:19.547Z,70.70
2019-03-24T07:53:24.407Z,71.00
2019-03-24T07:58:29.145Z,69.60
2019-03-24T08:03:34.121Z,69.50
2019-03-24T08:08:44.215Z,68.10
2019-03-24T08:13:53.615Z,69.30
2019-03-24T08:18:51.601Z,69.40
2019-03-24T08:23:56.467Z,67.00
2019-03-24T08:29:01.132Z,67.20
2019-03-24T08:34:05.822Z,66.00
2019-03-24T08:39:10.775Z,65.20
2019-03-24T08:44:15.745Z,65.10
2019-03-24T08:49:20.493Z,65.30
2019-03-24T08:54:25.315Z,64.00
2019-03-24T08:59:30.046Z,65.00
2019-03-24T09:04:35.016Z,62.20
2019-03-24T09:09:39.843Z,64.00
2019-03-24T09:14:44.806Z,64.40
2019-03-24T09:19:49.629Z,63.10
2019-03-24T09:24:54.604Z,62.80
2019-03-24T09:29:59.647Z,62.90
2019-03-24T09:35:05.926Z,62.30
2019-03-24T09:40:13.610Z,62.50
2019-03-24T09:45:19.004Z,62.50
2019-03-24T09:50:23.908Z,60.90
2019-03-24T09:55:30.115Z,60.30
2019-03-24T10:00:35.182Z,58.80
2019-03-24T10:05:40.214Z,60.40
2019-03-24T10:10:45.031Z,59.60
2019-03-24T10:15:50.003Z,58.10
2019-03-24T10:20:54.752Z,59.00
2019-03-24T10:26:00.084Z,58.60
2019-03-24T10:31:05.151Z,57.40
2019-03-24T10:36:09.903Z,55.30
2019-03-24T10:41:14.940Z,52.30
2019-03-24T10:46:19.683Z,54.10
2019-03-24T10:51:25.040Z,55.00
2019-03-24T10:56:30.070Z,53.50
2019-03-24T11:01:35.138Z,52.40
2019-03-24T11:06:41.724Z,54.30
2019-03-24T11:11:46.781Z,54.00
2019-03-24T11:16:51.489Z,52.80
2019-03-24T11:21:56.255Z,52.50
2019-03-24T11:27:01.074Z,53.60
2019-03-24T11:32:05.917Z,51.90
2019-03-24T11:37:10.792Z,53.30
2019-03-24T11:42:15.535Z,51.20
2019-03-24T11:47:26.607Z,51.50
2019-03-24T11:52:26.858Z,51.30
2019-03-24T11:57:31.598Z,51.50
2019-03-24T12:02:36.657Z,51.60
2019-03-24T12:07:43.007Z,51.40
2019-03-24T12:12:47.973Z,49.70
2019-03-24T12:17:52.793Z,51.90
2019-03-24T12:22:57.764Z,50.70
2019-03-24T12:28:02.582Z,51.40
2019-03-24T12:33:07.325Z,51.70
2019-03-24T12:38:12.310Z,52.80
2019-03-24T12:43:19.792Z,52.70
2019-03-24T12:48:23.454Z,50.70
2019-03-24T12:53:28.291Z,51.20
2019-03-24T12:58:33.082Z,51.70
2019-03-24T13:03:37.851Z,50.50
2019-03-24T13:08:42.591Z,49.40
2019-03-24T13:13:47.439Z,48.70
2019-03-24T13:18:52.385Z,50.60
2019-03-24T13:23:57.434Z,50.10
2019-03-24T13:29:02.464Z,50.20
2019-03-24T13:34:07.297Z,50.90
2019-03-24T13:39:12.282Z,48.50
2019-03-24T13:44:17.017Z,48.40
2019-03-24T13:49:21.757Z,48.00
2019-03-24T13:54:26.515Z,46.80
2019-03-24T13:59:31.314Z,48.10
2019-03-24T14:04:36.289Z,48.90
2019-03-24T14:09:41.002Z,48.30
2019-03-24T14:14:45.949Z,47.30
2019-03-24T14:19:50.793Z,53.20
2019-03-24T14:24:55.569Z,53.60
2019-03-24T14:30:00.619Z,54.20
2019-03-24T14:35:07.205Z,53.70
2019-03-24T14:40:13.781Z,54.20
2019-03-24T14:45:18.598Z,54.30
2019-03-24T14:50:23.348Z,54.90
2019-03-24T14:55:28.186Z,54.00
2019-03-24T15:00:38.280Z,54.50
2019-03-24T15:05:42.996Z,54.50
2019-03-24T15:10:47.846Z,54.30
2019-03-24T15:15:52.819Z,54.90
2019-03-24T15:21:05.494Z,55.90
2019-03-24T15:26:04.120Z,54.50
2019-03-24T15:31:09.189Z,55.20
2019-03-24T15:36:14.235Z,55.90
2019-03-24T15:41:19.287Z,56.60
2019-03-24T15:46:24.025Z,55.40
2019-03-24T15:51:28.642Z,56.10
2019-03-24T15:56:33.492Z,55.30
2019-03-24T16:01:38.867Z,54.30
2019-03-24T16:06:43.608Z,55.60
2019-03-24T16:11:48.428Z,56.20
2019-03-24T16:16:53.104Z,56.00
2019-03-24T16:21:58.143Z,56.80
2019-03-24T16:27:03.190Z,56.50
2019-03-24T16:32:08.240Z,56.70
2019-03-24T16:37:14.220Z,57.90
2019-03-24T16:42:18.954Z,58.10
2019-03-24T16:47:23.999Z,58.60
2019-03-24T16:52:29.050Z,59.30
2019-03-24T16:57:35.018Z,59.40
2019-03-24T17:02:40.684Z,60.00
2019-03-24T17:07:45.426Z,62.00
2019-03-24T17:12:50.479Z,62.10
2019-03-24T17:17:55.498Z,62.40
2019-03-24T17:23:00.265Z,62.90
2019-03-24T17:28:05.621Z,64.10
2019-03-24T17:33:10.442Z,63.60
2019-03-24T17:38:15.427Z,64.60
2019-03-24T17:43:20.462Z,65.20
2019-03-24T17:48:25.511Z,64.60
2019-03-24T17:53:30.253Z,64.80
2019-03-24T17:58:34.969Z,64.30
2019-03-24T18:03:40.378Z,64.40
2019-03-24T18:08:45.094Z,64.90
2019-03-24T18:13:49.834Z,63.70
2019-03-24T18:18:54.577Z,63.80
2019-03-24T18:23:59.628Z,64.00
2019-03-24T18:29:05.494Z,64.10
2019-03-24T18:34:10.274Z,64.50
2019-03-24T18:39:15.158Z,64.50
2019-03-24T18:44:20.108Z,65.00
2019-03-24T18:49:24.873Z,64.60
2019-03-24T18:54:29.919Z,65.00
2019-03-24T18:59:34.663Z,65.30
2019-03-24T19:04:43.708Z,65.40
2019-03-24T19:09:48.423Z,65.80
2019-03-24T19:14:53.188Z,66.50
2019-03-24T19:19:57.931Z,67.50
2019-03-24T19:25:03.193Z,69.80
2019-03-24T19:30:16.323Z,70.50
2019-03-24T19:35:21.373Z,70.60
2019-03-24T19:40:28.654Z,70.00
2019-03-24T19:45:33.497Z,71.00
2019-03-24T19:50:38.362Z,71.40
2019-03-24T19:55:43.049Z,71.00
2019-03-24T20:00:47.846Z,71.90
2019-03-24T20:05:52.667Z,72.10
2019-03-24T20:10:57.654Z,71.60
2019-03-24T20:16:02.994Z,71.70
2019-03-24T20:21:08.030Z,72.20
2019-03-24T20:26:13.093Z,71.60
2019-03-24T20:31:18.554Z,71.90
2019-03-24T20:36:24.196Z,70.60
2019-03-24T20:41:29.659Z,71.50
2019-03-24T20:46:34.409Z,71.70
2019-03-24T20:51:39.264Z,71.60
2019-03-24T20:56:44.325Z,72.10
2019-03-24T21:01:49.051Z,72.90
2019-03-24T21:06:53.793Z,71.70
2019-03-24T21:11:58.616Z,70.50
2019-03-24T21:17:03.582Z,70.30
2019-03-24T21:22:08.401Z,71.60
2019-03-24T21:27:13.375Z,73.00
2019-03-24T21:32:18.118Z,73.50
2019-03-24T21:37:23.165Z,74.90
2019-03-24T21:42:27.996Z,74.50
2019-03-24T21:47:32.955Z,74.70
2019-03-24T21:52:37.697Z,74.50
2019-03-24T21:57:42.518Z,75.30
2019-03-24T22:02:47.651Z,75.30
2019-03-24T22:07:52.538Z,74.70
2019-03-24T22:12:57.587Z,73.60
2019-03-24T22:18:02.408Z,74.10
2019-03-24T22:23:07.387Z,74.50
2019-03-24T22:28:12.430Z,73.40
2019-03-24T22:33:17.172Z,74.50
2019-03-24T22:38:22.527Z,75.10
2019-03-24T22:43:27.577Z,75.70
2019-03-24T22:48:32.318Z,75.80
2019-03-24T22:53:37.366Z,75.80
2019-03-24T22:58:42.112Z,77.00
2019-03-24T23:03:46.926Z,76.50
2019-03-24T23:08:51.776Z,76.30
2019-03-24T23:13:57.563Z,76.30
2019-03-24T23:19:02.615Z,76.70
2019-03-24T23:24:15.363Z,76.60
2019-03-24T23:29:13.939Z,76.60
2019-03-24T23:34:18.988Z,77.20
2019-03-24T23:39:24.037Z,78.40
2019-03-24T23:44:28.862Z,78.70
2019-03-24T23:49:33.831Z,78.40
2019-03-24T23:54:38.545Z,77.40
2019-03-24T23:59:43.313Z,77.40
